• Join FlightAware (Why Join?)
  • Login
  • US Flag 
07:21AM EDT


 

Airport Tracker/Info


-or-


 

Live Flight TrackerFlight Track Log ✈ UAL479 ✈ 08-Apr-2013 ✈ KSFO - KEWR

Flight Track Log - Related Links

Times and Time Zones

All times are in EDT time to prevent confusion due to time zone crossing. See the UAL479 flight status page for this flight to view local times or setup timezone preferences in your user account.

Time Position Orientation Groundspeed Altitude Reporting Facility
EDT Latitude Longitude Course Direction KTS MPH feet Rate Location/Type
01:29PM 37.6667 -122.3500 77° East 216 249 2,800  Level Northern Cal TRACON
01:30PM 37.7003 -122.2692 62° Northeast 238 274 5,800 2,820 Climbing Oakland Center
01:31PM 37.8374 -121.9721 54° Northeast  Level FlightAware Approximate
01:31PM 37.7381 -122.1764 63° Northeast 247 284 9,300  Level Oakland Center
01:32PM 37.9083 -121.8334 58° Northeast  Level FlightAware Approximate
01:32PM 37.7653 -122.0828 70° East 274 315 11,100  Level Oakland Center
01:33PM 37.9453 -121.6787 78° East  Level FlightAware Approximate
01:33PM 37.7978 -121.9750 69° East 327 376 12,700  Level Oakland Center
01:34PM 37.9727 -121.5168 77° East  Level FlightAware Approximate
01:34PM 37.8311 -121.8586 70° East 350 403 14,900  Level Oakland Center
01:35PM 37.8661 -121.7378 70° East 364 419 17,000 2,160 Climbing Oakland Center
01:36PM 37.9028 -121.6142 69° East 374 430 19,400 2,040 Climbing Oakland Center
01:37PM 37.9447 -121.4706 70° East 381 438 21,300 1,800 Climbing Oakland Center
01:38PM 37.9800 -121.3372 71° East 398 458 23,200 1,620 Climbing Oakland Center
01:40PM 38.0164 -121.2036 71° East 403 464 24,700 1,320 Climbing Oakland Center
01:41PM 38.0561 -121.0672 70° East 413 475 26,000 1,380 Climbing Oakland Center
01:42PM 38.0869 -120.9219 75° East 427 491 27,600 1,740 Climbing Oakland Center
01:43PM 38.1061 -120.7672 81° East 442 509 29,600 1,620 Climbing Oakland Center
01:44PM 38.1261 -120.6189 80° East 432 497 31,000 660 Climbing Oakland Center
01:45PM 38.1461 -120.4669 80° East 436 502 31,000  Level Oakland Center
01:46PM 38.1731 -120.2769 80° East 455 524 31,000  Level Oakland Center
01:47PM 38.1928 -120.1214 81° East 450 518 31,000  Level Oakland Center
01:48PM 38.2125 -119.9639 81° East 452 520 31,000  Level Oakland Center
01:49PM 38.2331 -119.8056 81° East 454 522 31,000  Level Oakland Center
01:50PM 38.2528 -119.6444 81° East 460 529 31,000  Level Oakland Center
01:51PM 38.2722 -119.4825 81° East 463 533 31,000  Level Oakland Center
01:52PM 38.2919 -119.3175 81° East 462 532 31,000  Level Oakland Center
01:53PM 38.3108 -119.1536 82° East 468 539 31,000  Level Oakland Center
01:54PM 38.3292 -118.9917 82° East 466 536 31,000  Level Oakland Center
01:55PM 38.3378 -118.8236 86° East 473 544 31,000  Level Oakland Center
01:56PM 38.3422 -118.6214 88° East 479 551 31,000  Level Oakland Center
01:57PM 38.3453 -118.4533 89° East 478 550 31,000  Level Oakland Center
01:58PM 38.3489 -118.2886 88° East 472 543 31,000  Level Oakland Center
01:59PM 38.3525 -118.1264 88° East 464 534 31,000  Level Oakland Center
02:00PM 38.3556 -117.9592 89° East 467 537 31,000  Level Oakland Center
02:01PM 38.3592 -117.7950 88° East 464 534 31,000  Level Oakland Center
02:02PM 38.3614 -117.6308 89° East 462 532 31,000  Level Oakland Center
02:03PM 38.3639 -117.4650 89° East 464 534 31,000  Level Oakland Center
02:04PM 38.3667 -117.2972 89° East 466 536 31,000  Level Oakland Center
02:05PM 38.3694 -117.1286 89° East 467 537 31,000  Level Oakland Center
02:05PM 38.3703 -117.0611 89° East 468 539 31,000  Level Salt Lake Center
02:06PM 38.3719 -116.8922 89° East 471 542 31,000  Level Salt Lake Center
02:07PM 38.3750 -116.7900 88° East 475 547 31,000  Level Oakland Center
02:08PM 38.3758 -116.6208 90° East 474 545 31,000  Level Oakland Center
02:08PM 38.3769 -116.5531 89° East 476 548 31,000 300 Level Salt Lake Center
02:10PM 38.3781 -116.3856 89° East 475 547 31,500 600 Climbing Salt Lake Center
02:10PM 38.3781 -116.2853 90° East 472 543 32,000 960 Climbing Oakland Center
02:11PM 38.3803 -116.0839 89° East 475 547 33,100 960 Climbing Oakland Center
02:12PM 38.3808 -116.0186 89° East 471 542 33,400 660 Climbing Salt Lake Center
02:13PM 38.3828 -115.8489 89° East 474 545 34,100 660 Climbing Salt Lake Center
02:14PM 38.3836 -115.6789 90° East 478 550 34,800 420 Climbing Salt Lake Center
02:15PM 38.3833 -115.5075 90° East 483 556 35,000 60 Climbing Salt Lake Center
02:16PM 38.3853 -115.3325 89° East 484 557 35,000  Level Salt Lake Center
02:17PM 38.3839 -115.1658 91° East 485 558 35,000  Level Salt Lake Center
02:18PM 38.3831 -114.9617 90° East 481 554 35,000  Level Salt Lake Center
02:19PM 38.3825 -114.7911 90° East 481 554 35,000  Level Salt Lake Center
02:20PM 38.3819 -114.6197 90° East 483 556 35,000  Level Salt Lake Center
02:21PM 38.3808 -114.4486 90° East 483 556 35,000  Level Salt Lake Center
02:22PM 38.3800 -114.2783 90° East 481 554 35,000  Level Salt Lake Center
02:23PM 38.3800 -114.1081 90° East 481 554 35,000  Level Salt Lake Center
02:24PM 38.3794 -113.9053 90° East 479 551 35,000  Level Salt Lake Center
02:25PM 38.4114 -113.7389 76° East 483 556 35,000  Level Salt Lake Center
02:26PM 38.4453 -113.5742 75° East 480 552 35,000  Level Salt Lake Center
02:27PM 38.4792 -113.4106 75° East 477 549 35,000  Level Salt Lake Center
02:28PM 38.5136 -113.2464 75° East 478 550 35,000  Level Salt Lake Center
02:29PM 38.5475 -113.0806 75° East 481 554 35,000  Level Salt Lake Center
02:30PM 38.5808 -112.9158 75° East 479 551 35,000  Level Salt Lake Center
02:31PM 38.6131 -112.7469 76° East 484 557 35,000  Level Salt Lake Center
02:32PM 38.6525 -112.5461 76° East 486 559 35,000  Level Salt Lake Center
02:33PM 38.6844 -112.3778 76° East 487 560 35,000  Level Salt Lake Center
02:34PM 38.7178 -112.2083 76° East 490 564 35,000  Level Salt Lake Center
02:35PM 38.7506 -112.0400 76° East 488 562 35,000  Level Salt Lake Center
02:36PM 38.7819 -111.8714 77° East 487 560 35,000  Level Salt Lake Center
02:37PM 38.8133 -111.7033 76° East 486 559 35,000  Level Salt Lake Center
02:38PM 38.8442 -111.5358 77° East 483 556 35,000  Level Salt Lake Center
02:39PM 38.8800 -111.3339 77° East 485 558 35,000  Level Salt Lake Center
02:40PM 38.9108 -111.1661 77° East 484 557 35,000  Level Salt Lake Center
02:41PM 38.9411 -110.9978 77° East 484 557 35,000  Level Salt Lake Center
02:43PM 38.9747 -110.8164 77° East 484 557 35,000  Level Salt Lake Center
02:44PM 39.0017 -110.6531 78° East 488 562 35,000  Level Salt Lake Center
02:45PM 39.0367 -110.4647 76° East 487 560 35,000  Level Salt Lake Center
02:46PM 39.0642 -110.3028 78° East 486 559 35,000  Level Salt Lake Center
02:47PM 39.0964 -110.1117 78° East 489 563 35,000  Level Salt Lake Center
02:48PM 39.1244 -109.9481 77° East 491 565 35,000  Level Salt Lake Center
02:48PM 39.1417 -109.8364 79° East 492 566 35,000  Level Denver Center
02:49PM 39.1697 -109.6717 78° East 492 566 35,000  Level Denver Center
02:50PM 39.1842 -109.5900 77° East 494 568 35,000  Level Salt Lake Center
02:51PM 39.2117 -109.4219 78° East 499 574 35,000  Level Salt Lake Center
02:51PM 39.2292 -109.3075 79° East 500 575 35,000  Level Denver Center
02:52PM 39.2614 -109.1100 78° East 505 581 35,000  Level Denver Center
02:53PM 39.2883 -108.9406 78° East 508 585 35,000  Level Denver Center
02:54PM 39.3194 -108.7417 79° East 511 588 35,000  Level Denver Center
02:56PM 39.3475 -108.5725 78° East 510 587 35,000  Level Denver Center
02:57PM 39.3794 -108.3708 78° East 522 601 35,000  Level Denver Center
02:58PM 39.4050 -108.2022 79° East 496 571 35,000  Level Denver Center
02:59PM 39.4356 -108.0006 79° East 510 587 35,000  Level Denver Center
03:00PM 39.4608 -107.8264 79° East 515 593 35,000  Level Denver Center
03:01PM 39.4911 -107.6250 79° East 513 590 35,000  Level Denver Center
03:02PM 39.5161 -107.4522 79° East 513 590 35,000  Level Denver Center
03:03PM 39.5458 -107.2500 79° East 513 590 35,000  Level Denver Center
03:04PM 39.5714 -107.0758 79° East 514 592 35,000  Level Denver Center
03:05PM 39.5972 -106.8703 81° East 521 600 35,000  Level Denver Center
03:06PM 39.6242 -106.6961 79° East 516 594 35,000  Level Denver Center
03:07PM 39.6497 -106.5089 80° East 513 590 35,000  Level Denver Center
03:08PM 39.6753 -106.3256 80° East 513 590 35,000  Level Denver Center
03:09PM 39.6997 -106.1411 80° East 513 590 35,000  Level Denver Center
03:10PM 39.7247 -105.9578 80° East 510 587 35,000  Level Denver Center
03:11PM 39.7492 -105.7711 80° East 522 601 35,000  Level Denver Center
03:12PM 39.7786 -105.5547 80° East 513 590 35,000  Level Denver Center
03:13PM 39.8014 -105.3703 81° East 514 592 35,000  Level Denver Center
03:14PM 39.8236 -105.1856 81° East 507 583 35,000  Level Denver Center
03:15PM 39.8475 -104.9975 81° East 517 595 35,000  Level Denver Center
03:16PM 39.8703 -104.8122 81° East 507 583 35,000  Level Denver Center
03:17PM 39.8944 -104.6264 80° East 508 585 35,000  Level Denver Center
03:18PM 39.9497 -104.4097 72° East 522 601 35,000  Level Denver Center
03:19PM 39.9964 -104.2331 71° East 507 583 35,000  Level Denver Center
03:20PM 40.0522 -104.0217 71° East 516 594 35,000  Level Denver Center
03:22PM 40.0997 -103.8456 71° East 503 579 35,000  Level Denver Center
03:23PM 40.1450 -103.6711 71° East 497 572 35,000  Level Denver Center
03:24PM 40.1903 -103.4947 71° East 504 580 35,000  Level Denver Center
03:25PM 40.2361 -103.3189 71° East 507 583 35,000  Level Denver Center
03:26PM 40.2811 -103.1431 71° East 506 582 35,000  Level Denver Center
03:27PM 40.3253 -102.9664 72° East 506 582 35,000  Level Denver Center
03:28PM 40.3686 -102.7894 72° East 507 583 35,000  Level Denver Center
03:29PM 40.4164 -102.6014 71° East 509 586 35,000  Level Denver Center
03:30PM 40.4656 -102.4042 72° East 508 585 35,000  Level Denver Center
03:31PM 40.5064 -102.2339 72° East 511 588 35,000  Level Denver Center
03:32PM 40.5553 -102.0342 72° East 514 592 35,000  Level Denver Center
03:33PM 40.5964 -101.8614 73° East 516 594 35,000  Level Denver Center
03:34PM 40.6453 -101.6614 72° East 516 594 35,000  Level Denver Center
03:35PM 40.6864 -101.4883 73° East 518 596 35,000  Level Denver Center
03:36PM 40.7269 -101.3153 73° East 516 594 35,000  Level Denver Center
03:37PM 40.7750 -101.1150 72° East 515 593 35,000  Level Denver Center
03:38PM 40.8150 -100.9428 73° East 512 589 35,000  Level Denver Center
03:39PM 40.8492 -100.7956 73° East 511 588 35,000  Level Denver Center
03:40PM 40.9033 -100.5586 73° East 510 587 35,000  Level Denver Center
03:41PM 40.9414 -100.3867 74° East 509 586 35,000  Level Denver Center
03:42PM 40.9856 -100.1864 74° East 509 586 35,000  Level Denver Center
03:43PM 41.0239 -100.0153 73° East 507 583 35,000  Level Denver Center
03:44PM 41.0683 -99.8167 73° East 504 580 35,000  Level Denver Center
03:45PM 41.1056 -99.6461 74° East 504 580 35,000  Level Denver Center
03:46PM 41.1419 -99.4764 74° East 501 577 35,000  Level Denver Center
03:47PM 41.1806 -99.2931 74° East 501 577 35,000  Level Denver Center
03:48PM 41.2189 -99.1128 74° East 503 579 35,000  Level Denver Center
03:49PM 41.2619 -98.9067 74° East 503 579 35,000  Level Denver Center
03:50PM 41.2753 -98.8458 74° East 505 581 35,000  Level Minneapolis Center
03:51PM 41.3119 -98.6658 75° East 505 581 35,000  Level Minneapolis Center
03:52PM 41.3511 -98.4853 74° East 506 582 35,000  Level Minneapolis Center
03:53PM 41.3806 -98.3036 78° East 511 588 35,000  Level Minneapolis Center
03:54PM 41.3856 -98.1161 88° East 508 585 35,000  Level Minneapolis Center
03:55PM 41.3911 -97.9253 88° East 509 586 35,000  Level Minneapolis Center
03:56PM 41.3956 -97.7381 88° East 508 585 35,000  Level Minneapolis Center
03:57PM 41.4000 -97.5481 88° East 510 587 35,000  Level Minneapolis Center
03:58PM 41.4042 -97.3569 88° East 513 590 35,000  Level Minneapolis Center
03:59PM 41.4108 -97.1281 88° East 516 594 35,000  Level Minneapolis Center
04:00PM 41.4150 -96.9369 88° East 516 594 35,000 -360 Level Minneapolis Center
04:01PM 41.4192 -96.7444 88° East 517 595 34,300 -840 Descending Minneapolis Center
04:02PM 41.4228 -96.5528 88° East 518 596 33,400 -660 Descending Minneapolis Center
04:03PM 41.4264 -96.3661 88° East 510 587 33,000 -240 Descending Minneapolis Center
04:04PM 41.4289 -96.1756 89° East 512 589 33,000  Level Minneapolis Center
04:05PM 41.4322 -95.9497 89° East 508 585 33,000  Level Minneapolis Center
04:06PM 41.4344 -95.7597 89° East 512 589 33,000  Level Minneapolis Center
04:07PM 41.4353 -95.5917 90° East 512 589 33,000  Level Minneapolis Center
04:08PM 41.4367 -95.3992 89° East 516 594 33,000  Level Minneapolis Center
04:09PM 41.4389 -95.1672 89° East 521 600 33,000  Level Minneapolis Center
04:10PM 41.4394 -94.9736 90° East 522 601 33,000  Level Minneapolis Center
04:11PM 41.4381 -94.7792 90° East 523 602 33,000  Level Minneapolis Center
04:12PM 41.4378 -94.5858 90° East 523 602 33,000  Level Minneapolis Center
04:13PM 41.4392 -94.3919 89° East 524 603 33,000  Level Minneapolis Center
04:14PM 41.4383 -94.1792 90° East 525 604 33,000  Level Minneapolis Center
04:15PM 41.4375 -93.9869 90° East 523 602 33,000  Level Minneapolis Center
04:16PM 41.4350 -93.7964 91° East 519 597 33,000  Level Minneapolis Center
04:17PM 41.4392 -93.6033 88° East 522 601 33,000  Level Minneapolis Center
04:18PM 41.4592 -93.4086 82° East 529 609 33,000  Level Minneapolis Center
04:20PM 41.4781 -93.2172 82° East 526 605 33,000  Level Minneapolis Center
04:21PM 41.4989 -92.9875 83° East 524 603 33,000  Level Minneapolis Center
04:22PM 41.5167 -92.7975 83° East 521 600 33,000  Level Minneapolis Center
04:23PM 41.5344 -92.6064 83° East 521 600 33,000  Level Minneapolis Center
04:24PM 41.5514 -92.4050 84° East 523 602 33,000  Level Chicago Center
04:25PM 41.5672 -92.2136 84° East 525 604 33,000  Level Chicago Center
04:26PM 41.5842 -92.0228 83° East 524 603 33,000  Level Chicago Center
04:27PM 41.6006 -91.8314 83° East 525 604 33,000  Level Chicago Center
04:28PM 41.6164 -91.6394 84° East 525 604 33,000  Level Chicago Center
04:29PM 41.6344 -91.4086 84° East 527 606 33,000  Level Chicago Center
04:30PM 41.6486 -91.2144 84° East 529 609 33,000  Level Chicago Center
04:31PM 41.6639 -91.0186 84° East 534 615 33,000  Level Chicago Center
04:32PM 41.6786 -90.8231 84° East 534 615 33,000  Level Chicago Center
04:33PM 41.6933 -90.6136 85° East 534 615 33,000  Level Chicago Center
04:34PM 41.7083 -90.4150 84° East 534 615 33,000  Level Chicago Center
04:35PM 41.7219 -90.2181 85° East 531 611 33,000  Level Chicago Center
04:36PM 41.7383 -89.9797 85° East 533 613 33,000  Level Chicago Center
04:37PM 41.7517 -89.7797 85° East 535 616 33,000  Level Chicago Center
04:38PM 41.7644 -89.5806 85° East 535 616 33,000  Level Chicago Center
04:39PM 41.7753 -89.3964 85° East 534 615 33,000  Level Chicago Center
04:40PM 41.7878 -89.1617 86° East 530 610 33,000  Level Chicago Center
04:41PM 41.7997 -88.9653 85° East 530 610 33,000  Level Chicago Center
04:42PM 41.8086 -88.7683 86° East 530 610 33,000  Level Chicago Center
04:43PM 41.8206 -88.5719 85° East 528 608 33,000  Level Chicago Center
04:44PM 41.8314 -88.3758 86° East 528 608 33,000  Level Chicago Center
04:45PM 41.8408 -88.1792 86° East 529 609 33,000  Level Chicago Center
04:46PM 41.8531 -87.9436 86° East 527 606 33,000  Level Chicago Center
04:47PM 41.8619 -87.7464 86° East 528 608 33,000  Level Chicago Center
04:48PM 41.8711 -87.5503 86° East 528 608 33,000  Level Chicago Center
04:49PM 41.8800 -87.3544 86° East 527 606 33,000  Level Chicago Center
04:50PM 41.8897 -87.1589 86° East 527 606 33,000  Level Chicago Center
04:51PM 41.8967 -86.9631 87° East 528 608 33,000  Level Chicago Center
04:53PM 41.9056 -86.7275 87° East 529 609 33,000  Level Chicago Center
04:54PM 41.9117 -86.5244 88° East 538 619 33,000  Level Chicago Center
04:55PM 41.9197 -86.3256 87° East 537 618 33,000  Level Chicago Center
04:56PM 41.9258 -86.1294 88° East 529 609 33,000  Level Chicago Center
04:57PM 41.9314 -85.9300 88° East 531 611 33,000  Level Chicago Center
04:58PM 41.9383 -85.7308 87° East 533 613 33,000  Level Chicago Center
04:59PM 41.9442 -85.5297 88° East 534 615 33,000  Level Chicago Center
05:00PM 41.9506 -85.2878 88° East 534 615 33,000  Level Chicago Center
05:00PM 41.9547 -85.1936 87° East 534 615 33,000  Level Cleveland Center
05:01PM 41.9542 -84.9953 90° East 534 615 33,000  Level Cleveland Center
05:02PM 41.9536 -84.7942 90° East 534 615 33,000  Level Cleveland Center
05:03PM 41.9481 -84.5983 92° East 534 615 33,000  Level Cleveland Center
05:04PM 41.9483 -84.4028 90° East 534 615 33,000  Level Cleveland Center
05:05PM 41.9458 -84.2294 91° East 529 609 33,000  Level Cleveland Center
05:06PM 41.9394 -84.0308 92° East 529 609 33,000  Level Cleveland Center
05:07PM 41.9389 -83.8353 90° East 529 609 33,000  Level Cleveland Center
05:08PM 41.9358 -83.6369 91° East 529 609 33,000  Level Cleveland Center
05:09PM 41.9331 -83.4219 91° East 529 609 33,000 -240 Level Cleveland Center
05:10PM 41.9331 -83.2461 90° East 536 617 32,600 -780 Descending Cleveland Center
05:11PM 41.9319 -83.0256 90° East 536 617 31,500 -1,800 Descending Cleveland Center
05:12PM 41.9297 -82.8300 91° East 531 611 29,000 -960 Descending Cleveland Center
05:13PM 41.9311 -82.6347 89° East 531 611 29,600  Climbing Cleveland Center
05:14PM 41.9242 -82.4333 93° East 531 611 29,000 -300 Descending Cleveland Center
05:15PM 41.9250 -82.2436 90° East 531 611 29,000  Level Cleveland Center
05:16PM 41.9214 -82.0567 91° East 519 597 29,000  Level Cleveland Center
05:17PM 41.9194 -81.8639 91° East 514 592 29,000  Level Cleveland Center
05:18PM 41.9069 -81.6714 95° East 520 598 29,000  Level Cleveland Center
05:19PM 41.8875 -81.4869 98° East 514 592 29,000  Level Cleveland Center
05:20PM 41.8703 -81.2969 97° East 514 592 29,000  Level Cleveland Center
05:21PM 41.8544 -81.1267 97° East 509 586 29,000  Level Cleveland Center
05:22PM 41.8364 -80.9372 97° East 503 579 29,000  Level Cleveland Center
05:23PM 41.8181 -80.7503 97° East 503 579 29,000  Level Cleveland Center
05:24PM 41.7994 -80.5636 98° East 509 586 29,000  Level Cleveland Center
05:25PM 41.7825 -80.3742 97° East 503 579 29,000  Level Cleveland Center
05:26PM 41.7633 -80.1850 98° East 503 579 29,000  Level Cleveland Center
05:27PM 41.7417 -79.9819 98° East 508 585 29,000  Level Cleveland Center
05:28PM 41.7217 -79.7958 98° East 501 577 29,000 -60 Level Cleveland Center
05:29PM 41.7017 -79.6125 98° East 501 577 28,900 -360 Descending Cleveland Center
05:30PM 41.6811 -79.4294 98° East 501 577 28,300 -600 Descending Cleveland Center
05:31PM 41.6647 -79.2600 97° East 507 583 27,800 -600 Descending Cleveland Center
05:32PM 41.6414 -79.0633 99° East 502 578 27,200 -420 Descending Cleveland Center
05:33PM 41.6203 -78.8833 99° East 502 578 27,000 -120 Descending Cleveland Center
05:34PM 41.6006 -78.6978 98° East 497 572 27,000  Level Cleveland Center
05:35PM 41.5767 -78.5153 100° East 502 578 27,000  Level Cleveland Center
05:36PM 41.5564 -78.3300 98° East 502 578 27,000  Level Cleveland Center
05:37PM 41.5539 -78.2922 95° East 496 571 27,000  Level New York Center
05:38PM 41.5300 -78.1119 100° East 496 571 27,000  Level New York Center
05:39PM 41.5075 -77.9322 99° East 496 571 27,000  Level New York Center
05:40PM 41.4808 -77.7494 101° East 496 571 27,000  Level New York Center
05:41PM 41.4558 -77.5722 101° East 490 564 27,000  Level New York Center
05:42PM 41.4253 -77.3728 101° East 490 564 27,000  Level New York Center
05:43PM 41.3997 -77.1931 101° East 490 564 27,000  Level New York Center
05:44PM 41.3717 -77.0161 102° East 490 564 27,000  Level New York Center
05:45PM 41.3456 -76.8369 101° East 495 570 27,000  Level New York Center
05:46PM 41.3064 -76.6650 107° East 490 564 27,000 -180 Level New York Center
05:47PM 41.2606 -76.4953 110° East 490 564 26,700 -1,740 Descending New York Center
05:48PM 41.2178 -76.3453 111° Southeast 490 564 23,500 -3,180 Descending New York Center
05:49PM 41.1756 -76.1767 108° East 483 556 20,300 -3,060 Descending New York Center
05:50PM 41.1292 -76.0019 109° East 466 536 17,500 -2,520 Descending New York Center
05:51PM 41.0858 -75.8500 111° Southeast 449 517 15,400 -1,800 Descending New York Center
05:52PM 41.0478 -75.7150 110° East 433 498 13,900 -1,260 Descending New York Center
05:53PM 41.0064 -75.5581 109° East 421 484 12,900 -960 Descending New York Center
05:54PM 40.9658 -75.4206 111° Southeast 414 476 12,000 -1,320 Descending New York Center
05:55PM 40.9294 -75.2864 110° East 392 451 10,300 -1,140 Descending New York Center
05:56PM 40.8983 -75.1689 109° East 359 413 9,800 -960 Descending New York Center
05:57PM 40.8669 -75.0653 112° Southeast 327 376 8,500 -1,260 Descending New York Center
05:58PM 40.8408 -74.9758 111° Southeast 294 338 7,400 -780 Descending New York Center
05:59PM 40.7964 -74.8772 121° Southeast 283 326 7,000 -240 Descending New York Center
06:00PM 40.7467 -74.8086 134° Southeast 283 326 7,000  Level New York Center
06:01PM 40.6889 -74.7311 135° Southeast 283 326 7,000 -360 Level New York Center
06:02PM 40.6669 -74.6425 108° East 273 314 6,300 -720 Descending New York Center
06:02PM 40.6667 -74.5833 90° East 289 333 6,000 -300 Descending New York TRACON
06:03PM 40.7667 -74.5500 14° North 288 331 5,900 -420 Descending New York TRACON
06:04PM 40.8333 -74.5167 21° North 288 331 5,200 -480 Descending New York TRACON
06:05PM 40.9000 -74.5000 11° North 287 330 5,000 -180 Descending New York TRACON
06:06PM 40.9183 -74.4644 56° Northeast 263 303 5,000  Level New York Center
06:07PM 40.9589 -74.3678 61° Northeast 263 303 5,000 60 Level New York Center
06:07PM 40.9833 -74.3167 58° Northeast 277 319 5,100 -240 Climbing New York TRACON
06:08PM 41.0000 -74.2333 75° East 221 254 4,700 -480 Descending New York TRACON
06:09PM 41.0000 -74.1667 90° East 199 229 4,100 -360 Descending New York TRACON
06:10PM 40.9667 -74.1000 123° Southeast 196 226 4,000  Descending New York TRACON
06:11PM 40.9333 -74.0833 159° South 185 213 4,100 -420 Climbing New York TRACON
06:12PM 40.8667 -74.0667 169° South 177 204 3,200 -660 Descending New York TRACON
06:13PM 40.8333 -74.0833 201° Southwest 175 201 2,800 -660 Descending New York TRACON
06:14PM 40.7833 -74.1000 194° South 150 173 1,900 -840 Descending New York TRACON